createdAt,value
2023-09-20T00:00:44.401Z,16.74
2023-09-20T00:03:14.582Z,16.74
2023-09-20T00:05:48.869Z,16.70
2023-09-20T00:08:21.677Z,16.68
2023-09-20T00:10:52.443Z,16.66
2023-09-20T00:13:22.483Z,16.65
2023-09-20T00:15:56.509Z,16.61
2023-09-20T00:18:28.516Z,16.60
2023-09-20T00:21:02.637Z,16.58
2023-09-20T00:23:36.398Z,16.57
2023-09-20T00:26:06.611Z,16.56
2023-09-20T00:28:37.183Z,16.56
2023-09-20T00:31:07.446Z,16.57
2023-09-20T00:33:38.254Z,16.55
2023-09-20T00:36:09.090Z,16.53
2023-09-20T00:38:43.198Z,16.50
2023-09-20T00:41:13.607Z,16.49
2023-09-20T00:43:43.794Z,16.47
2023-09-20T00:46:14.500Z,16.43
2023-09-20T00:48:46.485Z,16.43
2023-09-20T00:51:18.109Z,16.42
2023-09-20T00:53:50.881Z,16.43
2023-09-20T00:56:21.007Z,16.40
2023-09-20T00:58:52.624Z,16.37
2023-09-20T01:01:23.089Z,16.38
2023-09-20T01:03:55.621Z,16.34
2023-09-20T01:06:28.456Z,16.33
2023-09-20T01:09:01.241Z,16.35
2023-09-20T01:11:32.140Z,16.31
2023-09-20T01:14:03.699Z,16.27
2023-09-20T01:16:34.674Z,16.29
2023-09-20T01:19:07.737Z,16.30
2023-09-20T01:21:48.034Z,16.31
2023-09-20T01:24:20.269Z,16.27
2023-09-20T01:26:53.145Z,16.26
2023-09-20T01:29:23.505Z,16.26
2023-09-20T01:31:53.709Z,16.26
2023-09-20T01:34:23.895Z,16.23
2023-09-20T01:36:56.722Z,16.21
2023-09-20T01:39:27.333Z,16.20
2023-09-20T01:42:00.440Z,16.19
2023-09-20T01:44:30.917Z,16.18
2023-09-20T01:47:05.370Z,16.18
2023-09-20T01:49:39.708Z,16.15
2023-09-20T01:52:12.812Z,16.11
2023-09-20T01:54:43.777Z,16.09
2023-09-20T01:57:14.226Z,16.06
2023-09-20T01:59:44.608Z,16.06
2023-09-20T02:02:14.976Z,16.05
2023-09-20T02:04:50.169Z,16.05
2023-09-20T02:07:25.285Z,16.02
2023-09-20T02:09:55.308Z,16.04
2023-09-20T02:12:25.339Z,16.03
2023-09-20T02:14:55.529Z,16.02
2023-09-20T02:17:27.700Z,16.03
2023-09-20T02:19:57.844Z,16.01
2023-09-20T02:22:32.409Z,16.01
2023-09-20T02:25:02.509Z,16.00
2023-09-20T02:27:32.644Z,15.95
2023-09-20T02:30:02.764Z,15.94
2023-09-20T02:32:36.634Z,15.94
2023-09-20T02:35:08.276Z,15.95
2023-09-20T02:37:42.722Z,15.97
2023-09-20T02:40:14.656Z,15.95
2023-09-20T02:42:48.433Z,15.98
2023-09-20T02:45:23.668Z,15.99
2023-09-20T02:47:56.067Z,15.99
2023-09-20T02:50:27.890Z,16.01
2023-09-20T02:53:00.696Z,16.02
2023-09-20T02:55:35.002Z,16.06
2023-09-20T02:58:05.870Z,16.05
2023-09-20T03:00:36.153Z,16.07
2023-09-20T03:03:09.173Z,16.10
2023-09-20T03:05:40.346Z,16.12
2023-09-20T03:08:16.439Z,16.14
2023-09-20T03:10:48.007Z,16.16
2023-09-20T03:13:21.234Z,16.17
2023-09-20T03:15:56.484Z,16.18
2023-09-20T03:18:29.467Z,16.20
2023-09-20T03:21:11.970Z,16.20
2023-09-20T03:23:46.309Z,16.17
2023-09-20T03:26:17.775Z,16.18
2023-09-20T03:28:50.131Z,16.21
2023-09-20T03:31:23.631Z,16.23
2023-09-20T03:33:54.845Z,16.22
2023-09-20T03:36:28.744Z,16.23
2023-09-20T03:39:02.057Z,16.22
2023-09-20T03:41:33.314Z,16.26
2023-09-20T03:44:03.962Z,16.29
2023-09-20T03:46:34.148Z,16.26
2023-09-20T03:49:04.794Z,16.28
2023-09-20T03:51:34.929Z,16.28
2023-09-20T03:54:09.408Z,16.29
2023-09-20T03:56:42.561Z,16.30
2023-09-20T03:59:14.144Z,16.27
2023-09-20T04:01:44.564Z,16.26
2023-09-20T04:04:17.124Z,16.26
2023-09-20T04:06:49.032Z,16.25
2023-09-20T04:09:22.342Z,16.26
2023-09-20T04:11:52.647Z,16.25
2023-09-20T04:14:22.900Z,16.26
2023-09-20T04:16:58.385Z,16.26
2023-09-20T04:19:29.207Z,16.23
2023-09-20T04:22:02.676Z,16.23
2023-09-20T04:24:35.421Z,16.23
2023-09-20T04:27:06.767Z,16.22
2023-09-20T04:29:39.783Z,16.20
2023-09-20T04:32:10.115Z,16.17
2023-09-20T04:34:41.490Z,16.18
2023-09-20T04:37:16.572Z,16.16
2023-09-20T04:39:49.806Z,16.15
2023-09-20T04:42:20.445Z,16.13
2023-09-20T04:44:52.546Z,16.13
2023-09-20T04:47:23.018Z,16.11
2023-09-20T04:49:53.171Z,16.12
2023-09-20T04:52:23.600Z,16.12
2023-09-20T04:54:59.294Z,16.14
2023-09-20T04:57:29.637Z,16.15
2023-09-20T05:00:01.131Z,16.12
2023-09-20T05:02:31.754Z,16.11
2023-09-20T05:05:02.272Z,16.14
2023-09-20T05:07:32.993Z,16.12
2023-09-20T05:10:07.601Z,16.09
2023-09-20T05:12:37.906Z,16.11
2023-09-20T05:15:09.281Z,16.09
2023-09-20T05:17:39.660Z,16.07
2023-09-20T05:20:13.394Z,16.07
2023-09-20T05:22:43.740Z,16.06
2023-09-20T05:25:16.653Z,16.09
2023-09-20T05:27:47.962Z,16.11
2023-09-20T05:30:19.685Z,16.12
2023-09-20T05:32:53.469Z,16.14
2023-09-20T05:35:23.938Z,16.15
2023-09-20T05:37:53.956Z,16.20
2023-09-20T05:40:29.657Z,16.22
2023-09-20T05:42:59.668Z,16.27
2023-09-20T05:45:29.887Z,16.33
2023-09-20T05:47:59.996Z,16.34
2023-09-20T05:50:35.024Z,16.35
2023-09-20T05:53:06.460Z,16.35
2023-09-20T05:55:40.170Z,16.37
2023-09-20T05:58:10.626Z,16.40
2023-09-20T06:00:40.718Z,16.41
2023-09-20T06:03:13.312Z,16.44
2023-09-20T06:05:43.640Z,16.50
2023-09-20T06:08:15.805Z,16.55
2023-09-20T06:10:48.450Z,16.60
2023-09-20T06:13:18.452Z,16.66
2023-09-20T06:15:51.624Z,16.78
2023-09-20T06:18:21.967Z,16.94
2023-09-20T06:20:52.463Z,17.03
2023-09-20T06:23:23.249Z,17.15
2023-09-20T06:25:56.067Z,17.32
2023-09-20T06:28:29.313Z,17.63
2023-09-20T06:30:59.562Z,17.94
2023-09-20T06:33:29.819Z,18.35
2023-09-20T06:36:00.672Z,18.68
2023-09-20T06:38:31.882Z,18.84
2023-09-20T06:41:05.809Z,19.11
2023-09-20T06:43:37.454Z,19.46
2023-09-20T06:46:11.891Z,19.83
2023-09-20T06:48:42.981Z,20.07
2023-09-20T06:51:14.200Z,20.24
2023-09-20T06:53:44.812Z,20.47
2023-09-20T06:56:18.941Z,20.73
2023-09-20T06:58:49.318Z,20.92
2023-09-20T07:01:20.604Z,20.96
2023-09-20T07:03:50.947Z,21.12
2023-09-20T07:06:21.014Z,21.31
2023-09-20T07:08:51.209Z,21.46
2023-09-20T07:11:23.880Z,21.50
2023-09-20T07:13:53.936Z,21.57
2023-09-20T07:16:24.666Z,21.62
2023-09-20T07:18:56.635Z,21.65
2023-09-20T07:21:26.660Z,21.64
2023-09-20T07:23:56.979Z,21.67
2023-09-20T07:26:29.738Z,21.71
2023-09-20T07:28:59.905Z,21.75
2023-09-20T07:31:32.158Z,22.04
2023-09-20T07:34:05.382Z,22.30
2023-09-20T07:36:38.286Z,22.45
2023-09-20T07:39:09.931Z,22.45
2023-09-20T07:41:46.307Z,22.63
2023-09-20T07:44:17.153Z,22.76
2023-09-20T07:46:48.473Z,22.84
2023-09-20T07:49:19.229Z,22.77
2023-09-20T07:51:51.527Z,22.74
2023-09-20T07:54:21.796Z,22.93
2023-09-20T07:56:54.552Z,23.06
2023-09-20T07:59:29.739Z,23.22
2023-09-20T08:02:02.438Z,23.52
2023-09-20T08:04:38.711Z,23.93
2023-09-20T08:07:11.996Z,24.36
2023-09-20T08:09:42.081Z,24.72
2023-09-20T08:12:15.482Z,24.86
2023-09-20T08:14:45.569Z,25.02
2023-09-20T08:17:28.189Z,25.10
2023-09-20T08:19:58.290Z,25.03
2023-09-20T08:22:40.543Z,25.11
2023-09-20T08:25:23.921Z,25.14
2023-09-20T08:28:08.952Z,25.05
2023-09-20T08:30:51.483Z,25.09
2023-09-20T08:33:34.057Z,25.08
2023-09-20T08:36:16.538Z,25.26
2023-09-20T08:38:59.165Z,25.43
2023-09-20T08:41:41.690Z,25.54
2023-09-20T08:44:26.874Z,25.39
2023-09-20T08:47:10.431Z,24.89
2023-09-20T08:49:53.953Z,24.36
2023-09-20T08:52:36.948Z,23.87
2023-09-20T08:55:20.207Z,23.47
2023-09-20T08:58:03.527Z,23.29
2023-09-20T09:00:36.734Z,23.37
2023-09-20T09:03:08.818Z,23.52
2023-09-20T09:05:39.031Z,23.75
2023-09-20T09:08:09.756Z,24.20
2023-09-20T09:10:39.940Z,24.83
2023-09-20T09:13:10.028Z,25.35
2023-09-20T09:15:43.416Z,25.78
2023-09-20T09:18:22.080Z,26.12
2023-09-20T09:20:52.958Z,26.46
2023-09-20T09:23:37.469Z,26.61
2023-09-20T09:26:09.187Z,26.56
2023-09-20T09:28:41.840Z,26.36
2023-09-20T09:31:14.958Z,26.03
2023-09-20T09:33:46.061Z,25.63
2023-09-20T09:36:16.249Z,25.18
2023-09-20T09:38:46.403Z,24.83
2023-09-20T09:41:16.583Z,24.61
2023-09-20T09:44:00.084Z,24.46
2023-09-20T09:46:35.687Z,24.21
2023-09-20T09:49:17.412Z,24.00
2023-09-20T09:51:52.165Z,23.79
2023-09-20T09:54:24.241Z,23.69
2023-09-20T09:56:54.744Z,23.69
2023-09-20T09:59:24.929Z,23.75
2023-09-20T10:02:03.800Z,23.87
2023-09-20T10:04:38.047Z,23.97
2023-09-20T10:07:17.821Z,24.03
2023-09-20T10:09:54.493Z,24.11
2023-09-20T10:12:26.689Z,24.01
2023-09-20T10:14:57.494Z,24.01
2023-09-20T10:17:31.942Z,24.29
2023-09-20T10:20:02.165Z,24.73
2023-09-20T10:22:35.873Z,25.13
2023-09-20T10:25:06.896Z,25.52
2023-09-20T10:27:38.152Z,25.59
2023-09-20T10:30:11.627Z,25.44
2023-09-20T10:32:59.685Z,25.60
2023-09-20T10:35:31.799Z,25.90
2023-09-20T10:38:08.714Z,26.21
2023-09-20T10:41:01.871Z,26.39
2023-09-20T10:43:50.783Z,26.54
2023-09-20T10:46:23.948Z,26.51
2023-09-20T10:48:57.761Z,26.11
2023-09-20T10:51:50.177Z,25.68
2023-09-20T10:54:31.199Z,25.87
2023-09-20T10:57:09.118Z,26.34
2023-09-20T10:59:42.724Z,26.93
2023-09-20T11:02:17.952Z,27.29
2023-09-20T11:04:51.390Z,27.46
2023-09-20T11:07:22.155Z,27.58
2023-09-20T11:09:53.197Z,27.80
2023-09-20T11:12:23.486Z,27.89
2023-09-20T11:14:56.138Z,27.62
2023-09-20T11:17:26.905Z,27.34
2023-09-20T11:20:02.061Z,27.13
2023-09-20T11:22:33.004Z,26.89
2023-09-20T11:25:05.883Z,26.51
2023-09-20T11:27:38.375Z,26.17
2023-09-20T11:30:10.379Z,26.07
2023-09-20T11:32:44.003Z,26.32
2023-09-20T11:35:38.793Z,26.55
2023-09-20T11:38:13.863Z,26.60
2023-09-20T11:40:44.278Z,26.47
2023-09-20T11:43:14.477Z,26.52
2023-09-20T11:46:04.786Z,26.63
2023-09-20T11:48:35.249Z,26.64
2023-09-20T11:51:12.378Z,26.39
2023-09-20T11:53:45.736Z,26.32
2023-09-20T11:56:16.237Z,26.21
2023-09-20T11:58:47.962Z,26.10
2023-09-20T12:01:18.035Z,26.71
2023-09-20T12:03:48.424Z,27.59
2023-09-20T12:06:21.270Z,28.16
2023-09-20T12:08:52.333Z,28.48
2023-09-20T12:11:22.693Z,28.67
2023-09-20T12:13:53.147Z,29.06
2023-09-20T12:16:25.209Z,29.50
2023-09-20T12:18:56.200Z,29.71
2023-09-20T12:21:30.733Z,29.41
2023-09-20T12:24:00.862Z,29.16
2023-09-20T12:26:30.892Z,29.18
2023-09-20T12:29:01.037Z,29.50
2023-09-20T12:31:31.064Z,29.54
2023-09-20T12:34:02.385Z,29.15
2023-09-20T12:36:35.140Z,28.99
2023-09-20T12:39:06.474Z,28.88
2023-09-20T12:41:38.952Z,29.06
2023-09-20T12:44:10.355Z,29.59
2023-09-20T12:46:40.765Z,29.97
2023-09-20T12:49:11.425Z,30.18
2023-09-20T12:51:44.866Z,29.89
2023-09-20T12:54:17.713Z,29.56
2023-09-20T12:56:48.501Z,29.46
2023-09-20T12:59:21.071Z,29.16
2023-09-20T13:01:51.488Z,28.82
2023-09-20T13:04:21.647Z,28.52
2023-09-20T13:06:54.679Z,28.25
2023-09-20T13:09:25.122Z,27.92
2023-09-20T13:11:55.229Z,27.59
2023-09-20T13:14:25.819Z,27.28
2023-09-20T13:16:55.931Z,27.06
2023-09-20T13:19:26.110Z,26.87
2023-09-20T13:22:00.591Z,26.67
2023-09-20T13:24:32.656Z,26.54
2023-09-20T13:27:03.151Z,26.43
2023-09-20T13:29:33.386Z,26.27
2023-09-20T13:32:04.095Z,26.11
2023-09-20T13:34:34.341Z,25.98
2023-09-20T13:37:07.416Z,25.79
2023-09-20T13:39:43.551Z,25.70
2023-09-20T13:42:14.153Z,25.65
2023-09-20T13:44:46.955Z,25.59
2023-09-20T13:47:26.664Z,25.53
2023-09-20T13:49:57.394Z,25.47
2023-09-20T13:52:31.168Z,25.51
2023-09-20T13:55:01.269Z,25.57
2023-09-20T13:57:31.402Z,25.65
2023-09-20T14:00:05.012Z,25.63
2023-09-20T14:02:41.911Z,25.59
2023-09-20T14:05:18.239Z,25.61
2023-09-20T14:07:52.982Z,25.67
2023-09-20T14:10:24.024Z,25.70
2023-09-20T14:12:55.140Z,25.68
2023-09-20T14:15:26.611Z,25.64
2023-09-20T14:18:00.172Z,25.54
2023-09-20T14:20:35.583Z,25.43
2023-09-20T14:23:08.644Z,25.36
2023-09-20T14:25:39.600Z,25.29
2023-09-20T14:28:10.077Z,25.20
2023-09-20T14:30:40.352Z,25.12
2023-09-20T14:33:12.082Z,25.08
2023-09-20T14:35:45.684Z,25.11
2023-09-20T14:38:18.574Z,25.19
2023-09-20T14:40:49.062Z,25.27
2023-09-20T14:43:19.263Z,25.32
2023-09-20T14:45:49.990Z,25.36
2023-09-20T14:48:20.476Z,25.42
2023-09-20T14:50:50.833Z,25.47
2023-09-20T14:53:24.095Z,25.51
2023-09-20T14:55:54.517Z,25.54
2023-09-20T14:58:25.526Z,25.63
2023-09-20T15:00:55.874Z,25.70
2023-09-20T15:03:29.674Z,25.77
2023-09-20T15:06:00.054Z,25.79
2023-09-20T15:08:32.861Z,25.76
2023-09-20T15:11:04.459Z,25.70
2023-09-20T15:13:34.666Z,25.63
2023-09-20T15:16:04.837Z,25.59
2023-09-20T15:18:37.433Z,25.54
2023-09-20T15:21:10.350Z,25.47
2023-09-20T15:23:43.229Z,25.43
2023-09-20T15:26:14.744Z,25.30
2023-09-20T15:28:44.836Z,25.19
2023-09-20T15:31:15.390Z,25.10
2023-09-20T15:33:45.780Z,25.04
2023-09-20T15:36:17.254Z,24.99
2023-09-20T15:38:50.337Z,24.93
2023-09-20T15:41:20.628Z,24.90
2023-09-20T15:43:52.398Z,24.88
2023-09-20T15:46:22.574Z,24.86
2023-09-20T15:48:52.656Z,24.83
2023-09-20T15:51:26.489Z,24.79
2023-09-20T15:53:59.936Z,24.77
2023-09-20T15:56:30.139Z,24.78
2023-09-20T15:59:02.341Z,24.78
2023-09-20T16:01:32.809Z,24.77
2023-09-20T16:04:04.728Z,24.73
2023-09-20T16:06:35.414Z,24.69
2023-09-20T16:09:08.234Z,24.68
2023-09-20T16:11:38.499Z,24.68
2023-09-20T16:14:09.259Z,24.66
2023-09-20T16:16:39.696Z,24.64
2023-09-20T16:19:10.373Z,24.66
2023-09-20T16:21:40.578Z,24.63
2023-09-20T16:24:13.572Z,24.58
2023-09-20T16:26:43.869Z,24.55
2023-09-20T16:29:14.206Z,24.52
2023-09-20T16:31:44.284Z,24.48
2023-09-20T16:34:14.406Z,24.41
2023-09-20T16:36:44.515Z,24.33
2023-09-20T16:39:17.272Z,24.26
2023-09-20T16:41:47.386Z,24.23
2023-09-20T16:44:17.583Z,24.16
2023-09-20T16:46:48.863Z,24.09
2023-09-20T16:49:19.596Z,24.00
2023-09-20T16:51:49.824Z,23.96
2023-09-20T16:54:22.576Z,23.91
2023-09-20T16:56:52.673Z,23.86
2023-09-20T16:59:22.769Z,23.84
2023-09-20T17:01:53.839Z,23.80
2023-09-20T17:04:23.921Z,23.77
2023-09-20T17:06:54.170Z,23.75
2023-09-20T17:09:27.095Z,23.68
2023-09-20T17:11:57.208Z,23.62
2023-09-20T17:14:29.450Z,23.57
2023-09-20T17:17:00.385Z,23.48
2023-09-20T17:19:30.689Z,23.38
2023-09-20T17:22:04.210Z,23.30
2023-09-20T17:24:38.033Z,23.22
2023-09-20T17:27:27.068Z,23.18
2023-09-20T17:29:59.242Z,23.11
2023-09-20T17:32:29.673Z,23.05
2023-09-20T17:34:59.872Z,23.00
2023-09-20T17:37:31.399Z,22.96
2023-09-20T17:40:06.906Z,22.90
2023-09-20T17:42:37.698Z,22.86
2023-09-20T17:45:10.745Z,22.78
2023-09-20T17:47:43.523Z,22.69
2023-09-20T17:50:14.262Z,22.65
2023-09-20T17:52:48.326Z,22.59
2023-09-20T17:55:21.465Z,22.52
2023-09-20T17:57:52.500Z,22.43
2023-09-20T18:00:26.006Z,22.38
2023-09-20T18:02:57.678Z,22.31
2023-09-20T18:05:28.269Z,22.24
2023-09-20T18:07:58.676Z,22.21
2023-09-20T18:10:31.436Z,22.19
2023-09-20T18:13:01.482Z,22.14
2023-09-20T18:15:31.602Z,22.10
2023-09-20T18:18:01.933Z,22.04
2023-09-20T18:20:32.137Z,22.00
2023-09-20T18:23:03.088Z,21.98
2023-09-20T18:25:41.910Z,21.96
2023-09-20T18:28:16.030Z,21.92
2023-09-20T18:30:46.833Z,21.85
2023-09-20T18:33:17.695Z,21.79
2023-09-20T18:35:48.454Z,21.74
2023-09-20T18:38:18.557Z,21.70
2023-09-20T18:40:51.447Z,21.65
2023-09-20T18:43:21.462Z,21.62
2023-09-20T18:45:51.533Z,21.54
2023-09-20T18:48:21.681Z,21.47
2023-09-20T18:50:53.795Z,21.42
2023-09-20T18:53:27.878Z,21.37
2023-09-20T18:56:00.609Z,21.34
2023-09-20T18:58:34.459Z,21.32
2023-09-20T19:01:14.387Z,21.29
2023-09-20T19:03:47.516Z,21.28
2023-09-20T19:06:21.329Z,21.21
2023-09-20T19:08:54.270Z,21.17
2023-09-20T19:11:29.406Z,21.10
2023-09-20T19:14:00.060Z,21.06
2023-09-20T19:16:30.196Z,21.04
2023-09-20T19:19:00.963Z,21.00
2023-09-20T19:21:34.638Z,20.95
2023-09-20T19:24:10.161Z,20.90
2023-09-20T19:26:43.107Z,20.85
2023-09-20T19:29:15.328Z,20.82
2023-09-20T19:31:45.522Z,20.82
2023-09-20T19:34:16.333Z,20.78
2023-09-20T19:36:47.231Z,20.77
2023-09-20T19:39:17.380Z,20.73
2023-09-20T19:41:53.721Z,20.72
2023-09-20T19:44:23.945Z,20.71
2023-09-20T19:46:53.951Z,20.68
2023-09-20T19:49:26.188Z,20.63
2023-09-20T19:52:00.385Z,20.57
2023-09-20T19:54:31.664Z,20.53
2023-09-20T19:57:04.424Z,20.49
2023-09-20T19:59:34.595Z,20.43
2023-09-20T20:02:04.700Z,20.43
2023-09-20T20:04:35.480Z,20.41
2023-09-20T20:07:17.631Z,20.42
2023-09-20T20:09:56.703Z,20.44
2023-09-20T20:12:30.248Z,20.43
2023-09-20T20:15:00.335Z,20.40
2023-09-20T20:17:30.645Z,20.42
2023-09-20T20:20:01.050Z,20.40
2023-09-20T20:22:32.672Z,20.39
2023-09-20T20:25:04.739Z,20.35
2023-09-20T20:27:40.270Z,20.33
2023-09-20T20:30:11.631Z,20.33
2023-09-20T20:32:42.641Z,20.30
2023-09-20T20:35:15.841Z,20.29
2023-09-20T20:37:48.813Z,20.28
2023-09-20T20:40:22.439Z,20.27
2023-09-20T20:42:56.370Z,20.26
2023-09-20T20:45:26.482Z,20.25
2023-09-20T20:47:57.432Z,20.26
2023-09-20T20:50:31.794Z,20.26
2023-09-20T20:53:02.871Z,20.26
2023-09-20T20:55:33.360Z,20.22
2023-09-20T20:58:12.059Z,20.18
2023-09-20T21:00:51.970Z,20.19
2023-09-20T21:03:22.840Z,20.17
2023-09-20T21:05:54.381Z,20.13
2023-09-20T21:08:24.621Z,20.10
2023-09-20T21:10:56.192Z,20.04
2023-09-20T21:13:32.292Z,20.01
2023-09-20T21:16:03.227Z,19.98
2023-09-20T21:18:39.580Z,19.92
2023-09-20T21:21:11.584Z,19.87
2023-09-20T21:23:41.770Z,19.81
2023-09-20T21:26:12.077Z,19.79
2023-09-20T21:28:45.128Z,19.77
2023-09-20T21:31:18.820Z,19.74
2023-09-20T21:33:50.569Z,19.70
2023-09-20T21:36:21.354Z,19.64
2023-09-20T21:38:51.638Z,19.58
2023-09-20T21:41:21.655Z,19.51
2023-09-20T21:43:54.430Z,19.47
2023-09-20T21:46:24.588Z,19.45
2023-09-20T21:48:54.857Z,19.45
2023-09-20T21:51:24.949Z,19.47
2023-09-20T21:53:55.050Z,19.46
2023-09-20T21:56:25.291Z,19.43
2023-09-20T21:59:02.304Z,19.43
2023-09-20T22:01:32.367Z,19.39
2023-09-20T22:04:02.989Z,19.30
2023-09-20T22:06:33.329Z,19.26
2023-09-20T22:09:03.728Z,19.22
2023-09-20T22:11:33.841Z,19.18
2023-09-20T22:14:06.787Z,19.17
2023-09-20T22:16:39.579Z,19.21
2023-09-20T22:19:10.782Z,19.24
2023-09-20T22:21:41.602Z,19.25
2023-09-20T22:24:11.926Z,19.25
2023-09-20T22:26:42.044Z,19.24
2023-09-20T22:29:14.770Z,19.23
2023-09-20T22:31:45.683Z,19.22
2023-09-20T22:34:16.064Z,19.24
2023-09-20T22:36:46.125Z,19.25
2023-09-20T22:39:18.777Z,19.20
2023-09-20T22:41:49.961Z,19.19
2023-09-20T22:44:22.954Z,19.19
2023-09-20T22:46:56.763Z,19.19
2023-09-20T22:49:26.890Z,19.20
2023-09-20T22:51:58.192Z,19.21
2023-09-20T22:54:28.275Z,19.19
2023-09-20T22:56:58.390Z,19.17
2023-09-20T22:59:36.451Z,19.16
2023-09-20T23:02:07.538Z,19.12
2023-09-20T23:04:37.711Z,19.10
2023-09-20T23:07:07.868Z,19.04
2023-09-20T23:09:38.698Z,19.03
2023-09-20T23:12:17.075Z,19.02
2023-09-20T23:14:51.073Z,19.01
2023-09-20T23:17:22.752Z,19.02
2023-09-20T23:19:53.272Z,19.02
2023-09-20T23:22:27.102Z,19.00
2023-09-20T23:25:00.745Z,18.96
2023-09-20T23:27:31.288Z,18.96
2023-09-20T23:30:04.966Z,18.94
2023-09-20T23:32:35.328Z,18.91
2023-09-20T23:35:05.388Z,18.86
2023-09-20T23:37:36.520Z,18.79
2023-09-20T23:40:10.896Z,18.72
2023-09-20T23:42:41.793Z,18.70
2023-09-20T23:45:15.521Z,18.72
2023-09-20T23:47:46.441Z,18.75
2023-09-20T23:50:17.723Z,18.76
2023-09-20T23:52:47.790Z,18.76
2023-09-20T23:55:18.132Z,18.76
2023-09-20T23:57:48.182Z,18.72
